Temp: 8.6°C   Baro: 1006.6mb
  Wind: 4.9mph   Dir: NE (35°)
  Rain: 0.0mm (0.0mm/hr)
  Solar: 0W/m2  Hum: 85%
 
Bath Spa Weather Station Historical Data
Daily Summary for November 10, 2019 Units:  Metric    English   Both
Daily Weekly Monthly Yearly Custom
  High: Low: Average:
Temperature: 10.4 °C 5.1 °C 6.7 °C
Dew Point: 6.7 °C 3.5 °C 4.7 °C
Humidity: 94% 74.9% 88%
Wind Speed: 14.2km/h 0km/h 4.8km/h
Wind Gust: 37km/h - -
Wind- - ESE
Pressure: 1014.8 hPa 1002.9 hPa -
Precipitation: 1.27 mm    
Historical Graphs
 
 
Tabular Data for November 10, 2019
Time Temperature Dew Point Pressure Wind Wind Speed Wind Gust Humidity Rainfall Rate (Hourly) solar
00:04 5.2 °C 4.3 °C 1002.9 hPa NW 3.9 km/h 11.3 km/h 94% 0 mm 0 W/m2
00:09 5.2 °C 4.3 °C 1002.9 hPa North 5.6 km/h 14.5 km/h 94% 0 mm 0 W/m2
00:14 5.2 °C 4.3 °C 1002.9 hPa North 1.9 km/h 8 km/h 94% 0 mm 0 W/m2
00:19 5.2 °C 4.3 °C 1003.3 hPa NNW 4.3 km/h 12.9 km/h 94% 0 mm 0 W/m2
00:24 5.2 °C 4.3 °C 1002.9 hPa NNW 5.5 km/h 16.1 km/h 94% 0 mm 0 W/m2
00:29 5.3 °C 4.3 °C 1003.3 hPa NNW 5.8 km/h 14.5 km/h 94% 0 mm 0 W/m2
00:34 5.3 °C 4.3 °C 1003.3 hPa NNW 6.8 km/h 14.5 km/h 94% 0 mm 0 W/m2
00:39 5.3 °C 4.4 °C 1003.3 hPa North 3.7 km/h 12.9 km/h 94% 0 mm 0 W/m2
00:44 5.3 °C 4.4 °C 1003.3 hPa NNW 4.8 km/h 12.9 km/h 94% 0 mm 0 W/m2
00:49 5.3 °C 4.4 °C 1003.3 hPa NW 5.3 km/h 16.1 km/h 94% 0 mm 0 W/m2
00:54 5.3 °C 4.4 °C 1003.3 hPa NNW 6.6 km/h 16.1 km/h 94% 0 mm 0 W/m2
00:59 5.3 °C 4.4 °C 1003.3 hPa North 8 km/h 14.5 km/h 94% 0 mm 0 W/m2
01:04 5.3 °C 4.4 °C 1003.3 hPa NNW 9.5 km/h 16.1 km/h 94% 0 mm 0 W/m2
01:09 5.3 °C 4.4 °C 1003.3 hPa North 5.8 km/h 14.5 km/h 94% 0 mm 0 W/m2
01:14 5.3 °C 4.4 °C 1003.3 hPa NNW 9 km/h 17.7 km/h 94% 0 mm 0 W/m2
01:19 5.3 °C 4.4 °C 1003.3 hPa NNW 7.9 km/h 16.1 km/h 94% 0 mm 0 W/m2
01:24 5.3 °C 4.4 °C 1003.6 hPa North 10.6 km/h 20.9 km/h 94% 0 mm 0 W/m2
01:29 5.3 °C 4.4 °C 1003.6 hPa North 7.4 km/h 19.3 km/h 93.3% 0 mm 0 W/m2
01:34 5.4 °C 4.5 °C 1003.6 hPa North 9 km/h 16.1 km/h 93.8% 0 mm 0 W/m2
01:39 5.4 °C 4.4 °C 1003.6 hPa North 7.7 km/h 16.1 km/h 93% 0 mm 0 W/m2
01:44 5.3 °C 4.3 °C 1003.9 hPa NNW 8.2 km/h 19.3 km/h 93% 0 mm 0 W/m2
01:49 5.3 °C 4.3 °C 1003.9 hPa NNW 6.6 km/h 14.5 km/h 93% 0 mm 0 W/m2
01:54 5.3 °C 4.3 °C 1003.9 hPa NW 7.6 km/h 16.1 km/h 93% 0.25 mm 0 W/m2
01:59 5.3 °C 4.3 °C 1003.9 hPa NNW 8 km/h 16.1 km/h 93% 0.25 mm 0 W/m2
02:04 5.3 °C 4.3 °C 1003.9 hPa NNW 7.1 km/h 16.1 km/h 93% 0.25 mm 0 W/m2
02:09 5.2 °C 4.2 °C 1003.9 hPa North 9.5 km/h 17.7 km/h 93% 0.51 mm 0 W/m2
02:14 5.2 °C 4.2 °C 1003.9 hPa NNW 9.7 km/h 17.7 km/h 93% 0.51 mm 0 W/m2
02:19 5.2 °C 4.2 °C 1003.9 hPa North 5.5 km/h 16.1 km/h 93% 0.51 mm 0 W/m2
02:24 5.2 °C 4.2 °C 1003.9 hPa North 6.9 km/h 22.5 km/h 93% 0.51 mm 0 W/m2
02:29 5.2 °C 4.2 °C 1004.3 hPa NNE 7.7 km/h 16.1 km/h 93% 0.51 mm 0 W/m2
02:34 5.1 °C 4.1 °C 1004.3 hPa North 4.7 km/h 16.1 km/h 93% 0.51 mm 0 W/m2
02:39 5.1 °C 4.1 °C 1004.3 hPa North 7.9 km/h 16.1 km/h 93% 0.51 mm 0 W/m2
02:44 5.1 °C 4.1 °C 1004.3 hPa North 11.3 km/h 22.5 km/h 93% 0.51 mm 0 W/m2
02:49 5.2 °C 4.2 °C 1004.3 hPa NNE 13.8 km/h 30.6 km/h 93% 0.51 mm 0 W/m2
02:54 5.2 °C 4.2 °C 1004.6 hPa North 10.3 km/h 30.6 km/h 93% 0.51 mm 0 W/m2
02:59 5.2 °C 4.2 °C 1004.6 hPa North 10.6 km/h 17.7 km/h 93% 0.25 mm 0 W/m2
03:04 5.3 °C 4.3 °C 1004.6 hPa North 12.1 km/h 22.5 km/h 93% 0.25 mm 0 W/m2
03:09 5.4 °C 4.4 °C 1004.6 hPa NNE 9.2 km/h 22.5 km/h 93% 0.25 mm 0 W/m2
03:14 5.5 °C 4.5 °C 1005 hPa North 6.8 km/h 20.9 km/h 93% 0 mm 0 W/m2
03:19 5.6 °C 4.6 °C 1005 hPa NNE 6.8 km/h 14.5 km/h 93% 0 mm 0 W/m2
03:24 5.7 °C 4.7 °C 1005.3 hPa North 4 km/h 14.5 km/h 93% 0 mm 0 W/m2
03:29 5.7 °C 4.7 °C 1005.3 hPa NNE 6.1 km/h 16.1 km/h 93% 0 mm 0 W/m2
03:34 5.8 °C 4.8 °C 1005.6 hPa NE 6.9 km/h 14.5 km/h 93% 0 mm 0 W/m2
03:39 5.8 °C 4.8 °C 1005.6 hPa NNE 6.9 km/h 14.5 km/h 93% 0 mm 0 W/m2
03:44 5.9 °C 4.9 °C 1005.6 hPa NE 9 km/h 19.3 km/h 93% 0 mm 0 W/m2
03:49 6 °C 5 °C 1005.6 hPa NE 8.9 km/h 19.3 km/h 93% 0 mm 0 W/m2
03:54 6.1 °C 5.1 °C 1006 hPa NE 9 km/h 19.3 km/h 93% 0 mm 0 W/m2
03:59 6.1 °C 5.1 °C 1006 hPa NE 9.2 km/h 20.9 km/h 93% 0 mm 0 W/m2
04:04 6.1 °C 5.1 °C 1006.3 hPa NE 13.4 km/h 24.1 km/h 93% 0 mm 0 W/m2
04:09 6 °C 5 °C 1006.3 hPa NE 14.2 km/h 29 km/h 93% 0 mm 0 W/m2
04:14 6 °C 5 °C 1006.3 hPa NE 7.7 km/h 24.1 km/h 93% 0 mm 0 W/m2
04:19 5.9 °C 4.9 °C 1006.7 hPa NE 10.8 km/h 22.5 km/h 93% 0 mm 0 W/m2
04:24 5.9 °C 4.9 °C 1007 hPa NE 8.7 km/h 19.3 km/h 93% 0 mm 0 W/m2
04:29 5.9 °C 4.8 °C 1007 hPa NE 10.9 km/h 24.1 km/h 92.7% 0 mm 0 W/m2
04:34 5.8 °C 4.7 °C 1007 hPa NE 13.7 km/h 33.8 km/h 92% 0 mm 0 W/m2
04:39 5.9 °C 4.7 °C 1007.3 hPa NE 12.6 km/h 33.8 km/h 92% 0 mm 0 W/m2
04:44 5.9 °C 4.7 °C 1007.3 hPa NE 12.6 km/h 25.7 km/h 92% 0 mm 0 W/m2
04:49 5.9 °C 4.7 °C 1007.3 hPa NE 11.4 km/h 30.6 km/h 92% 0.25 mm 0 W/m2
04:54 5.9 °C 4.7 °C 1007.7 hPa NE 8.7 km/h 22.5 km/h 92% 0.25 mm 0 W/m2
04:59 5.9 °C 4.7 °C 1007.7 hPa NE 10 km/h 24.1 km/h 92% 0.25 mm 0 W/m2
05:04 6 °C 4.8 °C 1007.7 hPa ENE 11.9 km/h 33.8 km/h 92% 0.25 mm 0 W/m2
05:09 6.1 °C 4.8 °C 1007.7 hPa NE 13.5 km/h 33.8 km/h 92% 0.25 mm 0 W/m2
05:14 6.1 °C 4.9 °C 1008 hPa NE 10.8 km/h 33.8 km/h 92% 0.25 mm 0 W/m2
05:19 6.1 °C 4.9 °C 1008 hPa NE 13.7 km/h 33.8 km/h 92% 0.25 mm 0 W/m2
05:24 6.1 °C 4.9 °C 1008 hPa NNE 10.8 km/h 33.8 km/h 92% 0.25 mm 0 W/m2
05:29 6.1 °C 4.9 °C 1008 hPa NE 13.5 km/h 29 km/h 92% 0.25 mm 0 W/m2
05:34 6.2 °C 4.8 °C 1008.4 hPa NE 12.9 km/h 30.6 km/h 91.5% 0.25 mm 0 W/m2
05:39 6.2 °C 4.8 °C 1008.4 hPa NE 8.2 km/h 30.6 km/h 91% 0.25 mm 0 W/m2
05:44 6.2 °C 4.8 °C 1008.7 hPa NE 12.2 km/h 27.4 km/h 91% 0.25 mm 0 W/m2
05:49 6.2 °C 4.8 °C 1008.7 hPa NE 7.1 km/h 17.7 km/h 91% 0.25 mm 0 W/m2
05:54 6.2 °C 4.8 °C 1008.7 hPa NE 10.5 km/h 27.4 km/h 91% 0 mm 0 W/m2
05:59 6.2 °C 4.8 °C 1008.7 hPa NE 12.1 km/h 27.4 km/h 91% 0 mm 0 W/m2
06:04 6.1 °C 4.7 °C 1009 hPa NE 9.2 km/h 25.7 km/h 91% 0 mm 0 W/m2
06:09 6.1 °C 4.7 °C 1009 hPa NNE 6.6 km/h 17.7 km/h 91% 0 mm 0 W/m2
06:14 6.1 °C 4.7 °C 1009.4 hPa NNE 7.1 km/h 17.7 km/h 91% 0 mm 0 W/m2
06:19 6.1 °C 4.7 °C 1009.7 hPa NE 6.1 km/h 17.7 km/h 91% 0 mm 0 W/m2
06:24 6.1 °C 4.7 °C 1009.7 hPa NNE 7.7 km/h 17.7 km/h 91% 0 mm 0 W/m2
06:29 6.1 °C 4.7 °C 1010 hPa NNE 7.2 km/h 17.7 km/h 91% 0 mm 0 W/m2
06:34 6.1 °C 4.7 °C 1010 hPa NE 10.5 km/h 20.9 km/h 91% 0 mm 0 W/m2
06:39 6.1 °C 4.7 °C 1010.4 hPa NNE 7.4 km/h 16.1 km/h 91% 0 mm 0 W/m2
06:44 6.1 °C 4.7 °C 1010.4 hPa NE 7.1 km/h 20.9 km/h 91% 0 mm 0 W/m2
06:49 6 °C 4.6 °C 1010.4 hPa NE 8.9 km/h 20.9 km/h 91% 0 mm 0 W/m2
06:54 6 °C 4.6 °C 1010.4 hPa NE 6.6 km/h 14.5 km/h 91% 0 mm 0 W/m2
06:59 5.9 °C 4.6 °C 1010.7 hPa NE 8.9 km/h 16.1 km/h 91% 0 mm 0 W/m2
07:04 5.9 °C 4.6 °C 1010.7 hPa NE 8.7 km/h 25.7 km/h 91% 0 mm 0 W/m2
07:09 5.9 °C 4.5 °C 1010.7 hPa NE 6.3 km/h 17.7 km/h 91% 0 mm 0 W/m2
07:14 5.9 °C 4.5 °C 1010.7 hPa NE 9.3 km/h 17.7 km/h 91% 0 mm 0 W/m2
07:19 5.9 °C 4.4 °C 1011.1 hPa NE 13.7 km/h 24.1 km/h 90.7% 0 mm 0 W/m2
07:24 5.9 °C 4.4 °C 1011.4 hPa NE 10.3 km/h 29 km/h 90% 0 mm 0 W/m2
07:29 5.9 °C 4.4 °C 1011.4 hPa NE 11.7 km/h 22.5 km/h 90% 0 mm 0 W/m2
07:34 6 °C 4.5 °C 1011.4 hPa ENE 10.1 km/h 37 km/h 90% 0 mm 5 W/m2
07:39 5.9 °C 4.3 °C 1011.4 hPa NE 7.7 km/h 17.7 km/h 89.4% 0 mm 7 W/m2
07:44 5.9 °C 4.2 °C 1011.4 hPa NE 7.9 km/h 17.7 km/h 89% 0 mm 9 W/m2
07:49 5.9 °C 4.2 °C 1011.7 hPa ENE 8 km/h 24.1 km/h 89% 0 mm 11 W/m2
07:54 5.9 °C 4.2 °C 1011.7 hPa NNE 6.1 km/h 16.1 km/h 88.4% 0 mm 12 W/m2
07:59 5.9 °C 4.2 °C 1011.7 hPa NE 6 km/h 17.7 km/h 88% 0 mm 12 W/m2
08:04 5.9 °C 4.1 °C 1012.1 hPa NNE 9 km/h 22.5 km/h 88% 0 mm 12 W/m2
08:09 5.9 °C 4.1 °C 1012.1 hPa NE 11.3 km/h 14.5 km/h 88% 0 mm 12 W/m2
08:14 5.9 °C 4.2 °C 1012.1 hPa ENE 5.5 km/h 20.9 km/h 87.9% 0 mm 16 W/m2
08:19 5.9 °C 3.9 °C 1012.4 hPa NNE 7.9 km/h 17.7 km/h 87% 0 mm 19 W/m2
08:24 5.9 °C 3.9 °C 1012.4 hPa NE 7.4 km/h 16.1 km/h 87% 0 mm 23 W/m2
08:29 5.9 °C 3.9 °C 1012.4 hPa NNE 6.9 km/h 16.1 km/h 87% 0 mm 28 W/m2
08:34 5.9 °C 3.9 °C 1012.4 hPa NE 7.4 km/h 19.3 km/h 87% 0 mm 32 W/m2
08:39 6.1 °C 4.1 °C 1012.8 hPa NNE 7.1 km/h 19.3 km/h 87% 0 mm 32 W/m2
08:44 6.1 °C 4.1 °C 1012.8 hPa NNE 3.1 km/h 14.5 km/h 86.9% 0 mm 35 W/m2
08:49 6 °C 3.8 °C 1012.8 hPa NNE 3.5 km/h 11.3 km/h 86% 0 mm 42 W/m2
08:54 6 °C 3.8 °C 1013.1 hPa ENE 3.2 km/h 11.3 km/h 86% 0 mm 44 W/m2
08:59 6.1 °C 3.8 °C 1013.1 hPa East 3.2 km/h 12.9 km/h 86% 0 mm 42 W/m2
09:04 6.1 °C 3.8 °C 1013.4 hPa NE 3.2 km/h 9.7 km/h 86% 0 mm 42 W/m2
09:09 5.9 °C 3.7 °C 1013.4 hPa NNE 5 km/h 12.9 km/h 86% 0 mm 44 W/m2
09:14 6 °C 3.8 °C 1013.4 hPa NE 3.9 km/h 12.9 km/h 86% 0 mm 47 W/m2
09:19 5.9 °C 3.7 °C 1013.4 hPa NNE 6.6 km/h 16.1 km/h 86% 0 mm 58 W/m2
09:24 5.8 °C 3.6 °C 1013.4 hPa NE 7.9 km/h 16.1 km/h 86% 0 mm 63 W/m2
09:29 5.8 °C 3.6 °C 1013.8 hPa NE 5.3 km/h 12.9 km/h 86% 0 mm 67 W/m2
09:34 5.8 °C 3.6 °C 1013.8 hPa NNE 7.7 km/h 17.7 km/h 86% 0 mm 74 W/m2
09:39 5.7 °C 3.5 °C 1014.1 hPa NNE 7.9 km/h 19.3 km/h 86% 0 mm 81 W/m2
09:44 5.8 °C 3.6 °C 1014.1 hPa NE 3.9 km/h 14.5 km/h 86% 0 mm 81 W/m2
09:49 5.8 °C 3.6 °C 1014.1 hPa NE 5.3 km/h 11.3 km/h 86% 0 mm 86 W/m2
09:54 5.9 °C 3.7 °C 1014.4 hPa NE 5 km/h 16.1 km/h 85.6% 0 mm 90 W/m2
09:59 5.9 °C 3.6 °C 1014.4 hPa NE 8 km/h 22.5 km/h 85% 0 mm 88 W/m2
10:04 5.9 °C 3.6 °C 1014.4 hPa NNE 4.3 km/h 14.5 km/h 85% 0 mm 81 W/m2
10:09 5.9 °C 3.6 °C 1014.4 hPa ENE 3.5 km/h 14.5 km/h 85% 0 mm 91 W/m2
10:14 5.9 °C 3.6 °C 1014.4 hPa ENE 5 km/h 12.9 km/h 85% 0 mm 132 W/m2
10:19 6.2 °C 3.9 °C 1014.4 hPa NE 7.7 km/h 17.7 km/h 85% 0 mm 241 W/m2
10:24 6.6 °C 4.3 °C 1014.4 hPa NNE 9.2 km/h 17.7 km/h 85% 0 mm 260 W/m2
10:29 6.8 °C 4.4 °C 1014.4 hPa NNE 9.5 km/h 16.1 km/h 84.5% 0 mm 274 W/m2
10:34 6.9 °C 4.4 °C 1014.8 hPa NNE 6.3 km/h 20.9 km/h 84% 0 mm 276 W/m2
10:39 7.2 °C 4.7 °C 1014.8 hPa NE 7.2 km/h 17.7 km/h 84% 0 mm 265 W/m2
10:44 7.2 °C 4.6 °C 1014.8 hPa NNE 7.4 km/h 19.3 km/h 83.3% 0 mm 288 W/m2
10:49 7.3 °C 4.7 °C 1014.8 hPa NE 6.8 km/h 22.5 km/h 83.4% 0.25 mm 279 W/m2
10:54 7.5 °C 4.9 °C 1014.8 hPa ENE 8.7 km/h 20.9 km/h 83.5% 0.25 mm 285 W/m2
10:59 7.7 °C 5.1 °C 1014.4 hPa East 9.7 km/h 19.3 km/h 83% 0.25 mm 276 W/m2
11:04 7.7 °C 4.9 °C 1014.4 hPa ENE 13.2 km/h 22.5 km/h 82.3% 0.25 mm 279 W/m2
11:09 7.8 °C 4.9 °C 1014.4 hPa ENE 9.7 km/h 20.9 km/h 82% 0.25 mm 287 W/m2
11:14 8.1 °C 5.2 °C 1014.4 hPa ENE 9 km/h 17.7 km/h 82% 0.25 mm 295 W/m2
11:19 8.3 °C 5.3 °C 1014.4 hPa NE 5.1 km/h 22.5 km/h 81.8% 0.25 mm 292 W/m2
11:24 8.2 °C 5.2 °C 1014.4 hPa ENE 6.1 km/h 22.5 km/h 81.3% 0.25 mm 297 W/m2
11:29 8.3 °C 5.3 °C 1014.4 hPa ENE 9.2 km/h 14.5 km/h 81.6% 0.25 mm 297 W/m2
11:34 8.2 °C 5.2 °C 1014.4 hPa ENE 7.1 km/h 20.9 km/h 81% 0.25 mm 165 W/m2
11:39 8.2 °C 5.2 °C 1014.4 hPa East 8.7 km/h 20.9 km/h 81% 0.25 mm 325 W/m2
11:44 8.6 °C 5.4 °C 1014.4 hPa ESE 5.8 km/h 14.5 km/h 80.6% 0.25 mm 323 W/m2
11:49 9 °C 5.7 °C 1014.4 hPa ENE 8.2 km/h 17.7 km/h 79.6% 0.25 mm 316 W/m2
11:54 9.1 °C 5.7 °C 1014.1 hPa NE 9 km/h 20.9 km/h 79.2% 0 mm 338 W/m2
11:59 8.6 °C 5.1 °C 1014.1 hPa NE 9.5 km/h 20.9 km/h 78.5% 0 mm 353 W/m2
12:04 8.5 °C 5.2 °C 1014.1 hPa NE 6.4 km/h 17.7 km/h 79.5% 0 mm 367 W/m2
12:09 8.7 °C 5.3 °C 1014.1 hPa NNE 3.7 km/h 12.9 km/h 79.5% 0 mm 381 W/m2
12:14 8.7 °C 5.4 °C 1014.1 hPa North 5.1 km/h 16.1 km/h 79.4% 0 mm 353 W/m2
12:19 8.3 °C 4.9 °C 1014.1 hPa NNE 6.8 km/h 16.1 km/h 79% 0 mm 353 W/m2
12:24 8.3 °C 5.1 °C 1014.1 hPa NE 2.3 km/h 11.3 km/h 80% 0 mm 192 W/m2
12:29 8.3 °C 5.1 °C 1014.1 hPa NNE 4.8 km/h 9.7 km/h 79.7% 0 mm 139 W/m2
12:34 8.3 °C 5.1 °C 1014.1 hPa NNE 5.8 km/h 12.9 km/h 79.8% 0 mm 322 W/m2
12:39 8.9 °C 5.6 °C 1014.4 hPa NNE 3.7 km/h 8 km/h 80% 0 mm 327 W/m2
12:44 9.6 °C 6.1 °C 1014.4 hPa NE 3.2 km/h 8 km/h 79% 0 mm 350 W/m2
12:49 10.2 °C 6.3 °C 1014.4 hPa NNE 4 km/h 9.7 km/h 76.6% 0 mm 339 W/m2
12:54 9.2 °C 5.2 °C 1014.4 hPa North 9.2 km/h 14.5 km/h 75.8% 0 mm 341 W/m2
12:59 8.8 °C 5.3 °C 1014.4 hPa North 6 km/h 14.5 km/h 78.4% 0 mm 327 W/m2
13:04 9 °C 5.6 °C 1014.4 hPa North 3.7 km/h 9.7 km/h 79.2% 0 mm 318 W/m2
13:09 9.6 °C 6.1 °C 1014.4 hPa NE 3.4 km/h 11.3 km/h 79.2% 0 mm 299 W/m2
13:14 10.4 °C 6.7 °C 1014.4 hPa NE 2.6 km/h 16.1 km/h 77.5% 0 mm 306 W/m2
13:19 10.4 °C 6.3 °C 1014.4 hPa NE 4.8 km/h 16.1 km/h 75.5% 0 mm 309 W/m2
13:24 10.1 °C 5.8 °C 1014.1 hPa North 5.1 km/h 14.5 km/h 75% 0 mm 294 W/m2
13:29 9.9 °C 6 °C 1014.1 hPa NNE 4 km/h 11.3 km/h 76.7% 0 mm 288 W/m2
13:34 10 °C 5.9 °C 1014.1 hPa NE 6.3 km/h 19.3 km/h 75.7% 0 mm 287 W/m2
13:39 9.7 °C 5.7 °C 1014.1 hPa NE 3.7 km/h 19.3 km/h 75.8% 0 mm 281 W/m2
13:44 9.8 °C 5.9 °C 1014.1 hPa NNE 2.3 km/h 8 km/h 77% 0 mm 251 W/m2
13:49 9.9 °C 6 °C 1014.1 hPa NNE 3.7 km/h 12.9 km/h 76.7% 0 mm 251 W/m2
13:54 9.5 °C 5.4 °C 1014.1 hPa NNE 5.1 km/h 14.5 km/h 75.7% 0 mm 258 W/m2
13:59 9.3 °C 5.3 °C 1014.1 hPa NNE 8.7 km/h 12.9 km/h 76.1% 0 mm 246 W/m2
14:04 9.3 °C 5.5 °C 1014.1 hPa NNE 5.8 km/h 12.9 km/h 77% 0 mm 230 W/m2
14:09 9.3 °C 5.5 °C 1014.4 hPa North 6 km/h 11.3 km/h 77% 0 mm 230 W/m2
14:14 9.3 °C 5.5 °C 1014.4 hPa North 3.4 km/h 9.7 km/h 77% 0 mm 244 W/m2
14:19 9.6 °C 5.8 °C 1014.4 hPa NNW 2.7 km/h 8 km/h 77.1% 0 mm 253 W/m2
14:24 9.7 °C 5.8 °C 1014.4 hPa NNW 5.3 km/h 11.3 km/h 76.5% 0 mm 244 W/m2
14:29 9.4 °C 5.4 °C 1014.4 hPa NNW 3.9 km/h 8 km/h 76% 0 mm 179 W/m2
14:34 9.2 °C 5.4 °C 1014.4 hPa NNW 1.1 km/h 6.4 km/h 76.9% 0 mm 176 W/m2
14:39 9.2 °C 5.6 °C 1014.4 hPa NNW 1 km/h 6.4 km/h 77.7% 0 mm 181 W/m2
14:44 9.3 °C 5.7 °C 1014.8 hPa NNW 0.3 km/h 3.2 km/h 78% 0 mm 104 W/m2
14:49 9.6 °C 5.9 °C 1014.8 hPa Calm   1.6 km/h 77.8% 0 mm 109 W/m2
14:54 9.8 °C 6.1 °C 1014.8 hPa NNW 0.5 km/h 3.2 km/h 77.4% 0 mm 144 W/m2
14:59 10.2 °C 6.3 °C 1014.8 hPa NNW 1.9 km/h 6.4 km/h 77% 0 mm 144 W/m2
15:04 10.4 °C 6.4 °C 1014.4 hPa NNW 1.9 km/h 6.4 km/h 76.1% 0 mm 141 W/m2
15:09 10.3 °C 6.1 °C 1014.4 hPa NNW 1.4 km/h 6.4 km/h 74.9% 0 mm 98 W/m2
15:14 10.1 °C 5.8 °C 1014.8 hPa North 1.8 km/h 6.4 km/h 75% 0 mm 109 W/m2
15:19 9.7 °C 5.6 °C 1014.8 hPa North 4.3 km/h 8 km/h 75% 0 mm 111 W/m2
15:24 9.4 °C 5.3 °C 1014.8 hPa North 4.3 km/h 8 km/h 75.6% 0 mm 95 W/m2
15:29 8.9 °C 5.2 °C 1014.8 hPa NNW 5 km/h 8 km/h 77.2% 0 mm 33 W/m2
15:34 8.6 °C 5.1 °C 1014.8 hPa NNW 4.2 km/h 8 km/h 78.5% 0 mm 25 W/m2
15:39 8.3 °C 5.1 °C 1014.8 hPa NNW 4.2 km/h 8 km/h 79.5% 0 mm 19 W/m2
15:44 8.2 °C 5 °C 1014.4 hPa NNW 4 km/h 6.4 km/h 80.2% 0 mm 14 W/m2
15:49 8.1 °C 4.9 °C 1014.4 hPa NNW 1.8 km/h 6.4 km/h 81% 0 mm 14 W/m2
15:54 8 °C 4.9 °C 1014.4 hPa NNW 0.2 km/h 4.8 km/h 81.1% 0 mm 16 W/m2
15:59 8.1 °C 5.2 °C 1014.4 hPa Calm   1.6 km/h 82% 0 mm 16 W/m2
16:04 8.2 °C 5.3 °C 1014.1 hPa Calm   1.6 km/h 82% 0 mm 16 W/m2
16:09 8.2 °C 5.3 °C 1014.1 hPa Calm   1.6 km/h 82% 0 mm 12 W/m2
16:14 8.2 °C 5.2 °C 1014.1 hPa Calm     82% 0 mm 9 W/m2
16:19 7.9 °C 5.1 °C 1014.1 hPa Calm     82% 0 mm 5 W/m2
16:24 7.7 °C 4.8 °C 1014.1 hPa Calm     82.3% 0 mm 0 W/m2
16:29 7.4 °C 4.7 °C 1014.1 hPa Calm     83% 0 mm 0 W/m2
16:34 7.3 °C 4.7 °C 1014.1 hPa Calm     83.8% 0 mm 0 W/m2
16:39 7 °C 4.5 °C 1014.1 hPa NNW 0.2 km/h 1.6 km/h 84% 0 mm 0 W/m2
16:44 6.7 °C 4.3 °C 1013.8 hPa NNW 1.1 km/h 3.2 km/h 84.6% 0 mm 0 W/m2
16:49 6.4 °C 4.1 °C 1014.1 hPa NNW 2.3 km/h 4.8 km/h 85.2% 0 mm 0 W/m2
16:54 6.2 °C 3.9 °C 1013.8 hPa NNW 1.8 km/h 4.8 km/h 86% 0 mm 0 W/m2
16:59 6 °C 3.9 °C 1014.1 hPa NNW 1.9 km/h 4.8 km/h 86.5% 0 mm 0 W/m2
17:04 5.8 °C 3.8 °C 1014.1 hPa NNW 0.3 km/h 3.2 km/h 87% 0 mm 0 W/m2
17:09 5.8 °C 3.8 °C 1014.1 hPa NNW 0.2 km/h 4.8 km/h 87.2% 0 mm 0 W/m2
17:14 5.8 °C 3.9 °C 1014.1 hPa NNW 0.6 km/h 3.2 km/h 88% 0 mm 0 W/m2
17:19 5.6 °C 3.7 °C 1013.8 hPa NNW 1.3 km/h 4.8 km/h 88% 0 mm 0 W/m2
17:24 5.7 °C 3.9 °C 1013.8 hPa NNW 0.2 km/h 1.6 km/h 88% 0 mm 0 W/m2
17:29 6.2 °C 4.4 °C 1013.4 hPa Calm   1.6 km/h 88.8% 0 mm 0 W/m2
17:34 6.6 °C 4.9 °C 1013.4 hPa Calm   1.6 km/h 89% 0 mm 0 W/m2
17:39 6.9 °C 5.2 °C 1013.4 hPa NNW 1.1 km/h 4.8 km/h 89% 0 mm 0 W/m2
17:44 6.9 °C 5.2 °C 1013.1 hPa NNW 0.3 km/h 3.2 km/h 89% 0 mm 0 W/m2
17:49 6.9 °C 5.2 °C 1012.8 hPa NNW 0.3 km/h 3.2 km/h 89% 0 mm 0 W/m2
17:54 6.6 °C 4.8 °C 1012.4 hPa NNE 1.1 km/h 6.4 km/h 89% 0 mm 0 W/m2
17:59 6.1 °C 4.4 °C 1012.4 hPa NNE 0.5 km/h 3.2 km/h 88.6% 0 mm 0 W/m2
18:04 5.8 °C 4.1 °C 1012.1 hPa NNE 0.5 km/h 3.2 km/h 88.7% 0 mm 0 W/m2
18:09 5.7 °C 4.1 °C 1012.1 hPa NNE 0.3 km/h 3.2 km/h 89% 0 mm 0 W/m2
18:14 5.7 °C 4 °C 1011.7 hPa Calm   1.6 km/h 89% 0 mm 0 W/m2
18:19 5.7 °C 4 °C 1011.4 hPa Calm   1.6 km/h 89% 0 mm 0 W/m2
18:24 5.7 °C 4 °C 1011.4 hPa Calm     89% 0 mm 0 W/m2
18:29 5.7 °C 4 °C 1011.1 hPa Calm     89% 0 mm 0 W/m2
18:34 5.7 °C 4 °C 1011.1 hPa NNE 1.4 km/h 6.4 km/h 89% 0 mm 0 W/m2
18:39 5.7 °C 4.1 °C 1011.1 hPa NNE 2.6 km/h 8 km/h 89.2% 0 mm 0 W/m2
18:44 5.8 °C 4.2 °C 1011.4 hPa NNE 0.2 km/h 4.8 km/h 89.7% 0 mm 0 W/m2
18:49 5.8 °C 4.3 °C 1011.7 hPa Calm     90% 0 mm 0 W/m2
18:54 5.8 °C 4.3 °C 1011.7 hPa Calm     90% 0 mm 0 W/m2
18:59 5.8 °C 4.3 °C 1012.1 hPa Calm     90% 0 mm 0 W/m2
19:04 5.8 °C 4.3 °C 1012.1 hPa Calm     90% 0 mm 0 W/m2
19:09 5.9 °C 4.4 °C 1012.4 hPa Calm   1.6 km/h 90% 0 mm 0 W/m2
19:14 6.2 °C 4.7 °C 1012.4 hPa NNE 0.8 km/h 4.8 km/h 90% 0 mm 0 W/m2
19:19 6.1 °C 4.6 °C 1012.4 hPa NNE 0.3 km/h 3.2 km/h 90% 0 mm 0 W/m2
19:24 6 °C 4.5 °C 1012.4 hPa NNE 0.8 km/h 4.8 km/h 90% 0 mm 0 W/m2
19:29 5.9 °C 4.4 °C 1012.4 hPa Calm     90% 0 mm 0 W/m2
19:34 5.9 °C 4.4 °C 1012.4 hPa Calm     90% 0 mm 0 W/m2
19:39 5.9 °C 4.4 °C 1012.1 hPa NNE 0.5 km/h 1.6 km/h 90% 0 mm 0 W/m2
19:44 5.9 °C 4.4 °C 1011.7 hPa NNE 0.8 km/h 6.4 km/h 90% 0 mm 0 W/m2
19:49 5.9 °C 4.4 °C 1011.7 hPa NNE 2.6 km/h 8 km/h 90% 0 mm 0 W/m2
19:54 5.9 °C 4.4 °C 1011.4 hPa NNE 1 km/h 8 km/h 90% 0 mm 0 W/m2
19:59 5.9 °C 4.4 °C 1011.4 hPa NNE 2.6 km/h 8 km/h 90% 0 mm 0 W/m2
20:04 5.9 °C 4.4 °C 1011.1 hPa NNE 1 km/h 6.4 km/h 90% 0 mm 0 W/m2
20:09 5.9 °C 4.4 °C 1011.4 hPa NNE 1.4 km/h 6.4 km/h 90% 0 mm 0 W/m2
20:14 6 °C 4.5 °C 1011.4 hPa NNE 0.2 km/h 4.8 km/h 90% 0 mm 0 W/m2
20:19 6.1 °C 4.6 °C 1011.7 hPa Calm   1.6 km/h 90% 0 mm 0 W/m2
20:24 6.1 °C 4.6 °C 1011.7 hPa Calm   1.6 km/h 90% 0 mm 0 W/m2
20:29 6.1 °C 4.6 °C 1011.7 hPa Calm   1.6 km/h 90% 0 mm 0 W/m2
20:34 6.1 °C 4.6 °C 1011.7 hPa Calm     90% 0 mm 0 W/m2
20:39 6.1 °C 4.6 °C 1011.7 hPa Calm     90% 0 mm 0 W/m2
20:44 6.1 °C 4.6 °C 1011.7 hPa Calm     90% 0 mm 0 W/m2
20:49 6.1 °C 4.6 °C 1011.7 hPa Calm     90% 0 mm 0 W/m2
20:54 6.1 °C 4.6 °C 1011.7 hPa Calm   1.6 km/h 90% 0 mm 0 W/m2
20:59 6.1 °C 4.6 °C 1011.7 hPa Calm   1.6 km/h 90% 0 mm 0 W/m2
21:04 5.9 °C 4.4 °C 1011.7 hPa Calm     90% 0 mm 0 W/m2
21:09 5.8 °C 4.3 °C 1011.7 hPa NNE 0.2 km/h 3.2 km/h 90% 0 mm 0 W/m2
21:14 5.8 °C 4.3 °C 1011.7 hPa NNE 0.2 km/h 3.2 km/h 90% 0 mm 0 W/m2
21:19 5.8 °C 4.3 °C 1011.7 hPa Calm     90% 0 mm 0 W/m2
21:24 5.8 °C 4.3 °C 1011.4 hPa NNE 1.9 km/h 4.8 km/h 90% 0 mm 0 W/m2
21:29 5.8 °C 4.3 °C 1011.4 hPa NNE 0.6 km/h 4.8 km/h 90% 0 mm 0 W/m2
21:34 5.8 °C 4.3 °C 1011.4 hPa Calm   1.6 km/h 90% 0 mm 0 W/m2
21:39 5.8 °C 4.3 °C 1011.4 hPa Calm     90.8% 0 mm 0 W/m2
21:44 5.8 °C 4.4 °C 1011.1 hPa Calm     91% 0 mm 0 W/m2
21:49 5.8 °C 4.4 °C 1011.1 hPa Calm   1.6 km/h 91% 0 mm 0 W/m2
21:54 5.8 °C 4.4 °C 1011.1 hPa Calm   1.6 km/h 91% 0 mm 0 W/m2
21:59 5.9 °C 4.5 °C 1010.7 hPa Calm     91% 0 mm 0 W/m2
22:04 5.9 °C 4.5 °C 1010.7 hPa Calm     91% 0 mm 0 W/m2
22:09 5.9 °C 4.6 °C 1010.4 hPa Calm     91% 0 mm 0 W/m2
22:14 6.1 °C 4.7 °C 1010.4 hPa NNE 0.2 km/h 3.2 km/h 91% 0 mm 0 W/m2
22:19 6.1 °C 4.7 °C 1010 hPa NNE 1.4 km/h 4.8 km/h 91% 0 mm 0 W/m2
22:24 6.2 °C 4.8 °C 1010 hPa NNE 2.4 km/h 6.4 km/h 91% 0 mm 0 W/m2
22:29 6.3 °C 4.8 °C 1010 hPa NNE 1.4 km/h 6.4 km/h 91% 0 mm 0 W/m2
22:34 6.3 °C 4.9 °C 1009.7 hPa NNE 0.6 km/h 6.4 km/h 91% 0 mm 0 W/m2
22:39 6.4 °C 5 °C 1009.7 hPa NNE 0.5 km/h 3.2 km/h 91% 0 mm 0 W/m2
22:44 6.4 °C 4.9 °C 1009.4 hPa NNE 0.5 km/h 4.8 km/h 90.5% 0 mm 0 W/m2
22:49 6.5 °C 5 °C 1009 hPa NNE 0.3 km/h 3.2 km/h 90% 0.25 mm 0 W/m2
22:54 6.5 °C 5 °C 1009 hPa NNE 0.5 km/h 4.8 km/h 90% 0.25 mm 0 W/m2
22:59 6.6 °C 5.1 °C 1009 hPa NNE 0.3 km/h 3.2 km/h 90% 0.25 mm 0 W/m2
23:04 6.5 °C 5 °C 1008.7 hPa NNE 0.5 km/h 4.8 km/h 90% 0.25 mm 0 W/m2
23:09 6.5 °C 5 °C 1008.7 hPa Calm   1.6 km/h 90% 0.25 mm 0 W/m2
23:14 6.6 °C 5.1 °C 1008.4 hPa Calm   1.6 km/h 90% 0.25 mm 0 W/m2
23:19 6.6 °C 5.1 °C 1008.4 hPa Calm   1.6 km/h 90% 0.25 mm 0 W/m2
23:24 6.6 °C 5.1 °C 1008.4 hPa NNE 0.5 km/h 3.2 km/h 90% 0.25 mm 0 W/m2
23:29 6.6 °C 5.2 °C 1008.4 hPa NNE 0.2 km/h 3.2 km/h 90.4% 0.25 mm 0 W/m2
23:34 6.6 °C 5.2 °C 1008 hPa East 1.8 km/h 8 km/h 90.9% 0.25 mm 0 W/m2
23:39 6.6 °C 5.1 °C 1008 hPa SE 0.6 km/h 4.8 km/h 90.2% 0.25 mm 0 W/m2
23:44 6.6 °C 5.1 °C 1007.7 hPa SE 1.1 km/h 4.8 km/h 90.2% 0.25 mm 0 W/m2
23:49 6.5 °C 5.1 °C 1007.3 hPa SE 1.6 km/h 6.4 km/h 90.8% 0.51 mm 0 W/m2
23:54 6.5 °C 5.1 °C 1007.3 hPa SE 0.8 km/h 6.4 km/h 91% 0.25 mm 0 W/m2
23:59 6.6 °C 5.2 °C 1007 hPa SE 0.5 km/h 6.4 km/h 91% 0.25 mm 0 W/m2
Bath Spa Weather
Compliments of Weather Underground - 2 mb